createdAt,value
2017-12-17T00:00:54.214Z,1.20
2017-12-17T00:03:23.342Z,1.20
2017-12-17T00:05:51.384Z,1.20
2017-12-17T00:08:19.854Z,1.30
2017-12-17T00:10:47.584Z,1.20
2017-12-17T00:13:15.677Z,1.30
2017-12-17T00:15:43.711Z,1.30
2017-12-17T00:18:12.072Z,1.30
2017-12-17T00:20:39.785Z,1.30
2017-12-17T00:23:07.478Z,1.40
2017-12-17T00:25:36.300Z,1.40
2017-12-17T00:28:04.677Z,1.40
2017-12-17T00:30:33.035Z,1.50
2017-12-17T00:33:01.383Z,1.50
2017-12-17T00:35:30.697Z,1.30
2017-12-17T00:37:59.827Z,1.30
2017-12-17T00:40:27.859Z,1.20
2017-12-17T00:42:57.048Z,1.30
2017-12-17T00:45:25.396Z,1.30
2017-12-17T00:47:53.760Z,1.40
2017-12-17T00:50:22.245Z,1.40
2017-12-17T00:52:50.265Z,1.40
2017-12-17T00:55:20.603Z,1.50
2017-12-17T00:57:48.978Z,1.40
2017-12-17T01:00:17.352Z,1.50
2017-12-17T01:02:45.390Z,1.60
2017-12-17T01:05:13.898Z,1.60
2017-12-17T01:07:43.032Z,1.50
2017-12-17T01:10:11.399Z,1.50
2017-12-17T01:12:39.435Z,1.50
2017-12-17T01:15:08.225Z,1.60
2017-12-17T01:17:37.028Z,1.50
2017-12-17T01:20:05.087Z,1.50
2017-12-17T01:22:34.212Z,1.50
2017-12-17T01:25:02.596Z,1.50
2017-12-17T01:27:31.141Z,1.30
2017-12-17T01:30:00.272Z,1.30
2017-12-17T01:32:28.643Z,1.20
2017-12-17T01:34:57.038Z,1.20
2017-12-17T01:37:25.395Z,1.30
2017-12-17T01:39:53.752Z,1.10
2017-12-17T01:42:21.808Z,1.20
2017-12-17T01:44:50.289Z,1.40
2017-12-17T01:47:18.777Z,1.30
2017-12-17T01:49:47.256Z,1.20
2017-12-17T01:52:15.728Z,1.10
2017-12-17T01:54:43.436Z,1.10
2017-12-17T01:57:11.475Z,1.20
2017-12-17T01:59:40.597Z,1.30
2017-12-17T02:02:08.959Z,1.30
2017-12-17T02:04:37.023Z,1.10
2017-12-17T02:07:05.045Z,1.10
2017-12-17T02:09:32.740Z,1.20
2017-12-17T02:12:01.556Z,1.40
2017-12-17T02:14:29.607Z,1.40
2017-12-17T02:16:58.068Z,1.40
2017-12-17T02:19:25.888Z,1.30
2017-12-17T02:21:53.593Z,1.40
2017-12-17T02:24:21.288Z,1.30
2017-12-17T02:26:49.864Z,1.20
2017-12-17T02:29:17.560Z,1.20
2017-12-17T02:31:45.252Z,1.20
2017-12-17T02:34:13.749Z,1.30
2017-12-17T02:36:41.444Z,1.30
2017-12-17T02:39:09.147Z,1.40
2017-12-17T02:41:36.882Z,1.40
2017-12-17T02:44:04.577Z,1.40
2017-12-17T02:46:32.273Z,1.40
2017-12-17T02:49:00.965Z,1.30
2017-12-17T02:51:29.451Z,1.30
2017-12-17T02:53:57.155Z,1.30
2017-12-17T02:56:24.884Z,1.40
2017-12-17T02:58:52.622Z,1.40
2017-12-17T03:01:20.520Z,1.40
2017-12-17T03:03:48.372Z,1.30
2017-12-17T03:06:16.841Z,1.30
2017-12-17T03:08:45.323Z,1.30
2017-12-17T03:11:13.835Z,1.30
2017-12-17T03:13:41.535Z,1.30
2017-12-17T03:16:09.243Z,1.40
2017-12-17T03:18:36.960Z,1.30
2017-12-17T03:21:04.655Z,1.40
2017-12-17T03:23:33.132Z,1.40
2017-12-17T03:26:00.900Z,1.40
2017-12-17T03:28:29.375Z,1.40
2017-12-17T03:30:57.856Z,1.40
2017-12-17T03:33:26.370Z,1.30
2017-12-17T03:35:54.079Z,1.30
2017-12-17T03:38:21.833Z,1.30
2017-12-17T03:40:50.420Z,1.30
2017-12-17T03:43:18.120Z,1.30
2017-12-17T03:45:47.250Z,1.40
2017-12-17T03:48:14.968Z,1.40
2017-12-17T03:50:43.431Z,1.30
2017-12-17T03:53:11.136Z,1.30
2017-12-17T03:55:39.801Z,1.40
2017-12-17T03:58:08.517Z,1.30
2017-12-17T04:00:36.233Z,1.30
2017-12-17T04:03:05.460Z,1.30
2017-12-17T04:05:33.163Z,1.30
2017-12-17T04:08:00.859Z,1.20
2017-12-17T04:10:28.648Z,1.20
2017-12-17T04:12:56.344Z,1.20
2017-12-17T04:15:24.045Z,1.00
2017-12-17T04:17:51.853Z,1.00
2017-12-17T04:20:19.551Z,1.00
2017-12-17T04:22:47.256Z,1.00
2017-12-17T04:25:15.743Z,0.80
2017-12-17T04:27:43.437Z,0.80
2017-12-17T04:30:11.140Z,0.70
2017-12-17T04:32:38.877Z,0.80
2017-12-17T04:35:06.570Z,0.90
2017-12-17T04:37:35.071Z,1.00
2017-12-17T04:40:03.289Z,1.00
2017-12-17T04:42:31.330Z,0.90
2017-12-17T04:44:59.033Z,1.00
2017-12-17T04:47:26.774Z,1.10
2017-12-17T04:49:54.791Z,1.10
2017-12-17T04:52:22.496Z,1.10
2017-12-17T04:54:50.216Z,1.20
2017-12-17T04:57:18.711Z,1.00
2017-12-17T04:59:47.175Z,1.10
2017-12-17T05:02:15.658Z,1.00
2017-12-17T05:04:44.124Z,1.00
2017-12-17T05:07:12.520Z,1.00
2017-12-17T05:09:41.004Z,1.00
2017-12-17T05:12:09.930Z,1.00
2017-12-17T05:14:37.632Z,1.00
2017-12-17T05:17:05.847Z,0.90
2017-12-17T05:19:33.552Z,0.90
2017-12-17T05:22:01.605Z,0.80
2017-12-17T05:24:30.006Z,0.90
2017-12-17T05:26:58.041Z,0.80
2017-12-17T05:29:25.739Z,0.80
2017-12-17T05:31:53.832Z,0.80
2017-12-17T05:34:22.316Z,0.80
2017-12-17T05:36:50.792Z,0.90
2017-12-17T05:39:18.519Z,0.90
2017-12-17T05:41:46.216Z,0.80
2017-12-17T05:44:13.912Z,0.80
2017-12-17T05:46:41.793Z,0.80
2017-12-17T05:49:09.488Z,1.00
2017-12-17T05:51:37.196Z,1.00
2017-12-17T05:54:04.921Z,1.00
2017-12-17T05:56:32.638Z,1.10
2017-12-17T05:59:00.340Z,1.20
2017-12-17T06:01:28.053Z,1.10
2017-12-17T06:03:56.092Z,1.20
2017-12-17T06:06:24.891Z,1.10
2017-12-17T06:08:53.391Z,1.20
2017-12-17T06:11:21.098Z,1.20
2017-12-17T06:13:49.128Z,1.30
2017-12-17T06:16:17.380Z,1.30
2017-12-17T06:18:45.840Z,1.20
2017-12-17T06:21:14.215Z,1.20
2017-12-17T06:23:41.946Z,1.10
2017-12-17T06:26:09.669Z,1.00
2017-12-17T06:28:38.144Z,1.00
2017-12-17T06:31:06.774Z,1.10
2017-12-17T06:33:35.141Z,1.10
2017-12-17T06:36:02.844Z,1.00
2017-12-17T06:38:30.575Z,1.10
2017-12-17T06:40:58.287Z,1.20
2017-12-17T06:43:26.763Z,1.30
2017-12-17T06:45:54.830Z,1.30
2017-12-17T06:48:22.547Z,1.30
2017-12-17T06:50:50.585Z,1.30
2017-12-17T06:53:19.071Z,1.30
2017-12-17T06:55:47.440Z,1.30
2017-12-17T06:58:15.903Z,1.20
2017-12-17T07:00:43.619Z,1.20
2017-12-17T07:03:11.656Z,1.30
2017-12-17T07:05:40.470Z,1.20
2017-12-17T07:08:08.540Z,1.20
2017-12-17T07:10:36.252Z,1.30
2017-12-17T07:13:04.143Z,1.10
2017-12-17T07:15:32.663Z,1.20
2017-12-17T07:18:00.564Z,1.30
2017-12-17T07:20:28.268Z,1.30
2017-12-17T07:22:56.772Z,1.10
2017-12-17T07:25:24.484Z,1.10
2017-12-17T07:27:52.970Z,1.10
2017-12-17T07:30:21.043Z,1.10
2017-12-17T07:32:49.503Z,1.20
2017-12-17T07:35:17.208Z,1.20
2017-12-17T07:37:45.268Z,1.20
2017-12-17T07:40:13.739Z,1.20
2017-12-17T07:42:42.211Z,1.10
2017-12-17T07:45:11.051Z,1.10
2017-12-17T07:47:39.080Z,1.10
2017-12-17T07:50:07.560Z,1.00
2017-12-17T07:52:36.066Z,1.20
2017-12-17T07:55:03.769Z,1.10
2017-12-17T07:57:31.832Z,1.00
2017-12-17T07:59:59.564Z,0.80
2017-12-17T08:02:27.281Z,0.70
2017-12-17T08:04:54.986Z,0.70
2017-12-17T08:07:23.411Z,0.60
2017-12-17T08:09:51.233Z,0.60
2017-12-17T08:12:18.941Z,0.80
2017-12-17T08:14:46.706Z,0.90
2017-12-17T08:17:14.411Z,1.00
2017-12-17T08:19:42.800Z,1.00
2017-12-17T08:22:10.861Z,1.10
2017-12-17T08:24:38.895Z,1.10
2017-12-17T08:27:06.597Z,1.20
2017-12-17T08:29:34.321Z,1.30
2017-12-17T08:32:02.043Z,1.30
2017-12-17T08:34:29.746Z,1.20
2017-12-17T08:36:58.148Z,1.30
2017-12-17T08:39:26.183Z,1.30
2017-12-17T08:41:54.310Z,1.40
2017-12-17T08:44:27.076Z,1.40
2017-12-17T08:46:54.870Z,1.30
2017-12-17T08:49:22.576Z,1.20
2017-12-17T08:51:50.463Z,1.30
2017-12-17T08:54:18.518Z,1.40
2017-12-17T08:56:46.997Z,1.20
2017-12-17T08:59:16.208Z,1.20
2017-12-17T09:01:44.680Z,1.20
2017-12-17T09:04:13.485Z,1.20
2017-12-17T09:06:41.547Z,1.20
2017-12-17T09:09:10.015Z,1.20
2017-12-17T09:11:38.824Z,1.30
2017-12-17T09:14:06.580Z,1.30
2017-12-17T09:16:35.379Z,1.20
2017-12-17T09:19:03.080Z,1.20
2017-12-17T09:21:31.140Z,1.20
2017-12-17T09:23:58.862Z,1.20
2017-12-17T09:26:27.670Z,1.40
2017-12-17T09:28:55.385Z,1.40
2017-12-17T09:31:23.429Z,1.40
2017-12-17T09:33:51.478Z,1.40
2017-12-17T09:36:19.527Z,1.50
2017-12-17T09:38:47.259Z,1.40
2017-12-17T09:41:15.732Z,1.50
2017-12-17T09:43:43.782Z,1.50
2017-12-17T09:46:11.486Z,1.70
2017-12-17T09:48:40.296Z,1.70
2017-12-17T09:51:08.040Z,1.70
2017-12-17T09:53:36.532Z,1.80
2017-12-17T09:56:05.332Z,1.90
2017-12-17T09:58:33.477Z,1.90
2017-12-17T10:01:01.835Z,2.00
2017-12-17T10:03:30.212Z,2.00
2017-12-17T10:05:58.274Z,1.80
2017-12-17T10:08:26.636Z,1.90
2017-12-17T10:10:54.399Z,2.00
2017-12-17T10:13:22.144Z,2.10
2017-12-17T10:15:52.775Z,1.90
2017-12-17T10:18:20.516Z,1.80
2017-12-17T10:20:49.027Z,1.80
2017-12-17T10:23:16.725Z,1.70
2017-12-17T10:25:44.427Z,1.80
2017-12-17T10:28:13.318Z,1.90
2017-12-17T10:30:41.062Z,1.80
2017-12-17T10:33:08.868Z,1.70
2017-12-17T10:35:36.951Z,1.70
2017-12-17T10:38:04.984Z,1.60
2017-12-17T10:40:34.119Z,1.60
2017-12-17T10:43:01.844Z,1.60
2017-12-17T10:45:31.642Z,1.90
2017-12-17T10:48:00.455Z,1.90
2017-12-17T10:50:28.183Z,1.90
2017-12-17T10:52:55.892Z,1.90
2017-12-17T10:55:23.599Z,1.90
2017-12-17T10:57:51.313Z,1.90
2017-12-17T11:00:19.026Z,1.90
2017-12-17T11:02:47.088Z,2.00
2017-12-17T11:05:15.137Z,2.00
2017-12-17T11:07:43.213Z,1.90
2017-12-17T11:10:10.918Z,2.00
2017-12-17T11:12:39.516Z,2.00
2017-12-17T11:15:08.177Z,2.00
2017-12-17T11:17:35.878Z,2.00
2017-12-17T11:20:03.945Z,2.10
2017-12-17T11:22:31.978Z,2.00
2017-12-17T11:25:00.365Z,1.90
2017-12-17T11:27:29.193Z,2.00
2017-12-17T11:29:57.221Z,2.00
2017-12-17T11:32:25.693Z,2.20
2017-12-17T11:34:53.454Z,2.20
2017-12-17T11:37:21.483Z,2.30
2017-12-17T11:39:49.532Z,2.30
2017-12-17T11:42:17.272Z,2.20
2017-12-17T11:44:45.753Z,2.30
2017-12-17T11:47:14.554Z,2.40
2017-12-17T11:49:43.034Z,2.40
2017-12-17T11:52:11.524Z,2.50
2017-12-17T11:54:39.281Z,2.50
2017-12-17T11:57:07.384Z,2.60
2017-12-17T11:59:35.087Z,2.30
2017-12-17T12:02:03.123Z,2.10
2017-12-17T12:04:31.360Z,2.20
2017-12-17T12:06:59.147Z,2.30
2017-12-17T12:09:27.172Z,2.30
2017-12-17T12:11:55.704Z,2.60
2017-12-17T12:14:23.733Z,2.50
2017-12-17T12:16:52.200Z,2.60
2017-12-17T12:19:19.928Z,2.60
2017-12-17T12:21:47.647Z,2.80
2017-12-17T12:24:16.126Z,2.60
2017-12-17T12:26:44.758Z,2.70
2017-12-17T12:29:12.489Z,2.70
2017-12-17T12:31:40.240Z,2.80
2017-12-17T12:34:08.728Z,2.50
2017-12-17T12:36:36.442Z,2.50
2017-12-17T12:39:04.140Z,2.70
2017-12-17T12:41:32.625Z,2.60
2017-12-17T12:44:01.436Z,2.60
2017-12-17T12:46:29.177Z,2.60
2017-12-17T12:48:56.963Z,2.60
2017-12-17T12:51:25.008Z,2.90
2017-12-17T12:53:52.741Z,3.10
2017-12-17T12:56:20.488Z,2.90
2017-12-17T12:58:48.535Z,3.10
2017-12-17T13:01:16.243Z,3.10
2017-12-17T13:03:44.131Z,3.00
2017-12-17T13:06:12.960Z,3.20
2017-12-17T13:08:40.725Z,3.10
2017-12-17T13:11:08.950Z,3.20
2017-12-17T13:13:37.187Z,3.30
2017-12-17T13:16:05.412Z,3.30
2017-12-17T13:18:33.370Z,3.20
2017-12-17T13:21:01.561Z,3.20
2017-12-17T13:23:29.444Z,3.20
2017-12-17T13:25:57.396Z,2.90
2017-12-17T13:28:25.132Z,2.90
2017-12-17T13:30:52.847Z,2.60
2017-12-17T13:33:20.581Z,2.60
2017-12-17T13:35:48.289Z,2.70
2017-12-17T13:38:15.997Z,2.90
2017-12-17T13:40:44.718Z,3.10
2017-12-17T13:43:12.578Z,3.10
2017-12-17T13:45:41.073Z,3.10
2017-12-17T13:48:08.901Z,3.10
2017-12-17T13:50:38.158Z,3.10
2017-12-17T13:53:05.856Z,3.10
2017-12-17T13:55:34.770Z,3.10
2017-12-17T13:58:02.471Z,3.10
2017-12-17T14:00:30.199Z,3.10
2017-12-17T14:02:57.935Z,3.00
2017-12-17T14:05:26.426Z,3.00
2017-12-17T14:07:54.476Z,3.00
2017-12-17T14:10:22.966Z,3.00
2017-12-17T14:12:51.460Z,3.00
2017-12-17T14:15:19.521Z,3.00
2017-12-17T14:17:48.012Z,2.50
2017-12-17T14:20:15.713Z,2.50
2017-12-17T14:22:44.523Z,2.50
2017-12-17T14:25:12.278Z,2.50
2017-12-17T14:27:40.310Z,2.50
2017-12-17T14:30:08.037Z,2.60
2017-12-17T14:32:37.409Z,2.70
2017-12-17T14:35:06.337Z,2.70
2017-12-17T14:37:35.142Z,2.90
2017-12-17T14:40:02.963Z,2.90
2017-12-17T14:42:30.660Z,2.90
2017-12-17T14:44:58.375Z,2.90
2017-12-17T14:47:26.120Z,2.70
2017-12-17T14:49:53.897Z,2.60
2017-12-17T14:52:21.606Z,2.50
2017-12-17T14:54:50.090Z,2.80
2017-12-17T14:57:18.555Z,2.80
2017-12-17T14:59:47.041Z,2.70
2017-12-17T15:02:15.524Z,2.80
2017-12-17T15:04:44.353Z,2.80
2017-12-17T15:07:12.064Z,2.80
2017-12-17T15:09:39.821Z,2.80
2017-12-17T15:12:08.383Z,2.90
2017-12-17T15:14:36.075Z,2.90
2017-12-17T15:17:04.582Z,2.80
2017-12-17T15:19:32.299Z,2.80
2017-12-17T15:22:00.000Z,2.80
2017-12-17T15:24:27.739Z,2.90
2017-12-17T15:26:55.446Z,2.90
2017-12-17T15:29:23.147Z,2.90
2017-12-17T15:31:50.974Z,2.90
2017-12-17T15:34:18.496Z,2.90
2017-12-17T15:36:46.966Z,2.90
2017-12-17T15:39:14.858Z,2.90
2017-12-17T15:41:43.369Z,2.90
2017-12-17T15:44:11.081Z,2.80
2017-12-17T15:46:39.974Z,2.80
2017-12-17T15:49:08.445Z,2.80
2017-12-17T15:51:36.158Z,2.70
2017-12-17T15:54:03.916Z,2.70
2017-12-17T15:56:31.620Z,2.70
2017-12-17T15:59:00.009Z,2.70
2017-12-17T16:01:29.240Z,2.80
2017-12-17T16:03:56.944Z,2.80
2017-12-17T16:06:24.985Z,2.80
2017-12-17T16:08:52.721Z,2.80
2017-12-17T16:11:21.862Z,2.80
2017-12-17T16:13:50.225Z,2.80
2017-12-17T16:16:17.972Z,2.80
2017-12-17T16:18:45.672Z,2.80
2017-12-17T16:21:13.397Z,2.80
2017-12-17T16:23:41.263Z,2.80
2017-12-17T16:26:09.299Z,2.80
2017-12-17T16:28:38.312Z,2.80
2017-12-17T16:31:06.825Z,2.80
2017-12-17T16:33:34.568Z,2.80
2017-12-17T16:36:02.931Z,2.80
2017-12-17T16:38:31.768Z,2.80
2017-12-17T16:41:00.129Z,2.80
2017-12-17T16:43:28.488Z,2.80
2017-12-17T16:45:57.353Z,2.80
2017-12-17T16:48:25.785Z,2.70
2017-12-17T16:50:54.144Z,2.70
2017-12-17T16:53:22.668Z,2.70
2017-12-17T16:55:51.025Z,2.70
2017-12-17T16:58:19.390Z,2.80
2017-12-17T17:00:47.438Z,2.70
2017-12-17T17:03:16.567Z,2.80
2017-12-17T17:05:44.935Z,2.70
2017-12-17T17:08:13.317Z,2.80
2017-12-17T17:10:41.676Z,2.80
2017-12-17T17:13:10.079Z,2.80
2017-12-17T17:15:38.474Z,2.80
2017-12-17T17:18:06.846Z,2.80
2017-12-17T17:20:35.033Z,2.80
2017-12-17T17:23:03.559Z,2.80
2017-12-17T17:25:32.398Z,2.70
2017-12-17T17:28:00.762Z,2.80
2017-12-17T17:30:29.165Z,2.70
2017-12-17T17:32:57.534Z,2.70
2017-12-17T17:35:25.898Z,2.70
2017-12-17T17:37:54.300Z,2.70
2017-12-17T17:40:22.002Z,2.70
2017-12-17T17:42:50.540Z,2.60
2017-12-17T17:45:18.601Z,2.60
2017-12-17T17:47:47.016Z,2.70
2017-12-17T17:50:15.372Z,2.70
2017-12-17T17:52:43.869Z,2.70
2017-12-17T17:55:12.257Z,2.60
2017-12-17T17:57:41.385Z,2.50
2017-12-17T18:00:09.190Z,2.50
2017-12-17T18:02:37.553Z,2.50
2017-12-17T18:05:06.042Z,2.50
2017-12-17T18:07:34.449Z,2.40
2017-12-17T18:10:02.877Z,2.30
2017-12-17T18:12:30.905Z,2.30
2017-12-17T18:15:00.064Z,2.30
2017-12-17T18:17:28.492Z,2.30
2017-12-17T18:19:57.620Z,2.30
2017-12-17T18:22:26.020Z,2.30
2017-12-17T18:24:54.380Z,2.20
2017-12-17T18:27:22.760Z,2.20
2017-12-17T18:29:51.132Z,2.20
2017-12-17T18:32:19.493Z,2.30
2017-12-17T18:34:47.859Z,2.30
2017-12-17T18:37:16.260Z,2.30
2017-12-17T18:39:44.636Z,2.20
2017-12-17T18:42:13.105Z,2.20
2017-12-17T18:44:41.529Z,2.20
2017-12-17T18:47:09.896Z,2.30
2017-12-17T18:49:38.263Z,2.20
2017-12-17T18:52:06.648Z,2.20
2017-12-17T18:54:35.126Z,2.20
2017-12-17T18:57:03.488Z,2.20
2017-12-17T18:59:32.049Z,2.20
2017-12-17T19:02:01.180Z,2.20
2017-12-17T19:04:29.573Z,2.20
2017-12-17T19:06:58.097Z,2.20
2017-12-17T19:09:27.283Z,2.20
2017-12-17T19:11:56.431Z,2.10
2017-12-17T19:14:24.816Z,2.20
2017-12-17T19:16:53.214Z,2.20
2017-12-17T19:19:21.580Z,2.10
2017-12-17T19:21:49.998Z,2.10
2017-12-17T19:24:19.130Z,2.20
2017-12-17T19:26:47.496Z,2.10
2017-12-17T19:29:15.892Z,2.10
2017-12-17T19:31:44.276Z,2.10
2017-12-17T19:34:12.816Z,2.10
2017-12-17T19:36:42.147Z,2.10
2017-12-17T19:39:10.329Z,2.10
2017-12-17T19:41:38.708Z,2.10
2017-12-17T19:44:07.099Z,2.10
2017-12-17T19:46:35.490Z,2.10
2017-12-17T19:49:03.858Z,2.10
2017-12-17T19:51:32.235Z,2.10
2017-12-17T19:54:00.596Z,2.10
2017-12-17T19:56:28.626Z,2.10
2017-12-17T19:58:57.825Z,2.10
2017-12-17T20:01:26.956Z,2.10
2017-12-17T20:03:55.328Z,2.10
2017-12-17T20:06:23.757Z,2.10
2017-12-17T20:08:52.122Z,2.10
2017-12-17T20:11:20.514Z,2.10
2017-12-17T20:13:48.896Z,2.10
2017-12-17T20:16:17.338Z,2.10
2017-12-17T20:18:45.665Z,2.10
2017-12-17T20:21:14.653Z,2.10
2017-12-17T20:23:43.599Z,2.10
2017-12-17T20:26:11.985Z,2.10
2017-12-17T20:28:40.212Z,2.10
2017-12-17T20:31:09.149Z,2.20
2017-12-17T20:33:37.330Z,2.20
2017-12-17T20:36:05.525Z,2.20
2017-12-17T20:38:33.894Z,2.20
2017-12-17T20:41:02.259Z,2.10
2017-12-17T20:43:30.696Z,2.20
2017-12-17T20:45:59.061Z,2.20
2017-12-17T20:48:28.198Z,2.20
2017-12-17T20:50:56.240Z,2.20
2017-12-17T20:53:24.635Z,2.20
2017-12-17T20:55:53.009Z,2.20
2017-12-17T20:58:21.575Z,2.20
2017-12-17T21:00:49.932Z,2.20
2017-12-17T21:03:19.088Z,2.20
2017-12-17T21:05:47.776Z,2.20
2017-12-17T21:08:16.164Z,2.20
2017-12-17T21:10:44.560Z,2.10
2017-12-17T21:13:12.957Z,2.10
2017-12-17T21:15:42.184Z,2.10
2017-12-17T21:18:10.543Z,2.10
2017-12-17T21:20:45.067Z,2.10
2017-12-17T21:23:13.600Z,2.10
2017-12-17T21:25:42.026Z,2.10
2017-12-17T21:28:10.401Z,2.10
2017-12-17T21:30:39.480Z,2.00
2017-12-17T21:33:08.409Z,2.00
2017-12-17T21:35:36.897Z,2.00
2017-12-17T21:38:05.398Z,2.10
2017-12-17T21:40:33.824Z,2.00
2017-12-17T21:43:02.980Z,2.10
2017-12-17T21:45:31.383Z,2.10
2017-12-17T21:48:00.529Z,2.10
2017-12-17T21:50:29.007Z,2.00
2017-12-17T21:52:57.397Z,2.10
2017-12-17T21:55:25.787Z,2.10
2017-12-17T21:57:54.182Z,2.00
2017-12-17T22:00:22.565Z,2.00
2017-12-17T22:02:50.974Z,2.00
2017-12-17T22:05:19.340Z,2.00
2017-12-17T22:07:48.466Z,1.90
2017-12-17T22:10:17.172Z,1.90
2017-12-17T22:12:45.558Z,1.80
2017-12-17T22:15:14.001Z,1.70
2017-12-17T22:17:42.360Z,1.60
2017-12-17T22:20:11.494Z,1.60
2017-12-17T22:22:39.871Z,1.60
2017-12-17T22:25:09.272Z,1.50
2017-12-17T22:27:37.687Z,1.50
2017-12-17T22:30:06.053Z,1.50
2017-12-17T22:32:34.420Z,1.50
2017-12-17T22:35:02.815Z,1.50
2017-12-17T22:37:31.180Z,1.50
2017-12-17T22:39:59.592Z,1.50
2017-12-17T22:42:28.245Z,1.40
2017-12-17T22:44:56.611Z,1.40
2017-12-17T22:47:25.690Z,1.30
2017-12-17T22:49:54.317Z,1.30
2017-12-17T22:52:22.717Z,1.30
2017-12-17T22:54:51.960Z,1.30
2017-12-17T22:57:21.593Z,1.20
2017-12-17T22:59:50.232Z,1.20
2017-12-17T23:02:18.912Z,1.20
2017-12-17T23:04:47.299Z,1.20
2017-12-17T23:07:15.660Z,1.20
2017-12-17T23:09:43.621Z,1.20
2017-12-17T23:12:11.685Z,1.20
2017-12-17T23:14:40.820Z,1.30
2017-12-17T23:17:09.204Z,1.30
2017-12-17T23:19:37.574Z,1.30
2017-12-17T23:22:06.199Z,1.30
2017-12-17T23:24:34.611Z,1.20
2017-12-17T23:27:03.076Z,1.10
2017-12-17T23:29:31.477Z,1.10
2017-12-17T23:32:00.592Z,1.10
2017-12-17T23:34:29.993Z,1.00
2017-12-17T23:36:58.269Z,1.20
2017-12-17T23:39:26.627Z,1.00
2017-12-17T23:41:54.998Z,1.00
2017-12-17T23:44:24.222Z,1.00
2017-12-17T23:46:53.387Z,0.90
2017-12-17T23:49:21.774Z,0.90
2017-12-17T23:51:50.713Z,0.80
2017-12-17T23:54:19.108Z,0.80
2017-12-17T23:56:48.275Z,0.90
2017-12-17T23:59:16.643Z,0.80
